sensor_id;sensor_type;location;lat;lon;timestamp;pressure;altitude;pressure_sealevel;temperature;humidity
36190;BME280;22232;50.914;13.858;2022-07-23T00:01:09;97917.66;;;19.94;100.00
36190;BME280;22232;50.914;13.858;2022-07-23T00:03:37;97912.84;;;19.91;100.00
36190;BME280;22232;50.914;13.858;2022-07-23T00:06:05;97917.72;;;19.89;100.00
36190;BME280;22232;50.914;13.858;2022-07-23T00:08:36;97902.28;;;19.90;100.00
36190;BME280;22232;50.914;13.858;2022-07-23T00:11:04;97903.69;;;19.87;100.00
36190;BME280;22232;50.914;13.858;2022-07-23T00:13:31;97902.34;;;19.85;100.00
36190;BME280;22232;50.914;13.858;2022-07-23T00:15:59;97890.22;;;19.82;100.00
36190;BME280;22232;50.914;13.858;2022-07-23T00:18:26;97901.31;;;19.81;100.00
36190;BME280;22232;50.914;13.858;2022-07-23T00:20:54;97892.47;;;19.75;100.00
36190;BME280;22232;50.914;13.858;2022-07-23T00:23:21;97886.22;;;19.75;100.00
36190;BME280;22232;50.914;13.858;2022-07-23T00:25:49;97886.53;;;19.73;100.00
36190;BME280;22232;50.914;13.858;2022-07-23T00:28:17;97881.16;;;19.68;100.00
36190;BME280;22232;50.914;13.858;2022-07-23T00:30:45;97879.81;;;19.65;100.00
36190;BME280;22232;50.914;13.858;2022-07-23T00:33:13;97876.31;;;19.65;100.00
36190;BME280;22232;50.914;13.858;2022-07-23T00:35:41;97876.88;;;19.62;100.00
36190;BME280;22232;50.914;13.858;2022-07-23T00:38:10;97874.16;;;19.62;100.00
36190;BME280;22232;50.914;13.858;2022-07-23T00:40:38;97871.22;;;19.58;100.00
36190;BME280;22232;50.914;13.858;2022-07-23T00:43:07;97871.28;;;19.53;100.00
36190;BME280;22232;50.914;13.858;2022-07-23T00:45:34;97864.53;;;19.51;100.00
36190;BME280;22232;50.914;13.858;2022-07-23T00:48:03;97849.72;;;19.48;100.00
36190;BME280;22232;50.914;13.858;2022-07-23T00:50:30;97862.19;;;19.44;100.00
36190;BME280;22232;50.914;13.858;2022-07-23T00:52:58;97865.19;;;19.42;100.00
36190;BME280;22232;50.914;13.858;2022-07-23T00:55:26;97865.78;;;19.34;100.00
36190;BME280;22232;50.914;13.858;2022-07-23T00:57:55;97874.81;;;19.24;100.00
36190;BME280;22232;50.914;13.858;2022-07-23T01:00:25;97877.06;;;19.17;100.00
36190;BME280;22232;50.914;13.858;2022-07-23T01:02:52;97874.41;;;19.12;100.00
36190;BME280;22232;50.914;13.858;2022-07-23T01:05:20;97876.34;;;19.07;100.00
36190;BME280;22232;50.914;13.858;2022-07-23T01:07:50;97864.56;;;18.92;100.00
36190;BME280;22232;50.914;13.858;2022-07-23T01:10:23;97869.25;;;18.82;100.00
36190;BME280;22232;50.914;13.858;2022-07-23T01:13:06;97868.75;;;18.74;100.00
36190;BME280;22232;50.914;13.858;2022-07-23T01:15:37;97858.78;;;18.70;100.00
36190;BME280;22232;50.914;13.858;2022-07-23T01:18:07;97853.41;;;18.65;100.00
36190;BME280;22232;50.914;13.858;2022-07-23T01:20:37;97852.94;;;18.57;100.00
36190;BME280;22232;50.914;13.858;2022-07-23T01:23:06;97854.28;;;18.55;100.00
36190;BME280;22232;50.914;13.858;2022-07-23T01:25:35;97840.31;;;18.48;100.00
36190;BME280;22232;50.914;13.858;2022-07-23T01:28:03;97834.09;;;18.47;100.00
36190;BME280;22232;50.914;13.858;2022-07-23T01:30:31;97842.22;;;18.47;100.00
36190;BME280;22232;50.914;13.858;2022-07-23T01:33:01;97840.31;;;18.48;100.00
36190;BME280;22232;50.914;13.858;2022-07-23T01:35:29;97835.72;;;18.48;100.00
36190;BME280;22232;50.914;13.858;2022-07-23T01:38:01;97834.91;;;18.48;100.00
36190;BME280;22232;50.914;13.858;2022-07-23T01:40:29;97826.56;;;18.44;100.00
36190;BME280;22232;50.914;13.858;2022-07-23T01:42:58;97822.78;;;18.40;100.00
36190;BME280;22232;50.914;13.858;2022-07-23T01:45:29;97822.00;;;18.40;100.00
36190;BME280;22232;50.914;13.858;2022-07-23T01:47:57;97816.34;;;18.36;100.00
36190;BME280;22232;50.914;13.858;2022-07-23T01:50:24;97813.66;;;18.36;100.00
36190;BME280;22232;50.914;13.858;2022-07-23T01:53:11;97808.28;;;18.31;100.00
36190;BME280;22232;50.914;13.858;2022-07-23T01:55:40;97809.38;;;18.30;100.00
36190;BME280;22232;50.914;13.858;2022-07-23T01:58:08;97805.59;;;18.26;100.00
36190;BME280;22232;50.914;13.858;2022-07-23T02:00:36;97809.41;;;18.25;100.00
36190;BME280;22232;50.914;13.858;2022-07-23T02:03:04;97802.09;;;18.25;100.00
36190;BME280;22232;50.914;13.858;2022-07-23T02:05:36;97802.91;;;18.26;100.00
36190;BME280;22232;50.914;13.858;2022-07-23T02:08:04;97794.25;;;18.29;100.00
36190;BME280;22232;50.914;13.858;2022-07-23T02:10:35;97792.38;;;18.29;100.00
36190;BME280;22232;50.914;13.858;2022-07-23T02:13:03;97803.44;;;18.28;100.00
36190;BME280;22232;50.914;13.858;2022-07-23T02:15:31;97801.03;;;18.26;100.00
36190;BME280;22232;50.914;13.858;2022-07-23T02:17:59;97808.31;;;18.26;100.00
36190;BME280;22232;50.914;13.858;2022-07-23T02:20:27;97806.16;;;18.23;100.00
36190;BME280;22232;50.914;13.858;2022-07-23T02:22:55;97808.06;;;18.22;100.00
36190;BME280;22232;50.914;13.858;2022-07-23T02:25:22;97804.03;;;18.20;100.00
36190;BME280;22232;50.914;13.858;2022-07-23T02:27:55;97803.50;;;18.18;100.00
36190;BME280;22232;50.914;13.858;2022-07-23T02:30:23;97803.50;;;18.18;100.00
36190;BME280;22232;50.914;13.858;2022-07-23T02:32:51;97794.88;;;18.16;100.00
36190;BME280;22232;50.914;13.858;2022-07-23T02:35:19;97800.56;;;18.14;100.00
36190;BME280;22232;50.914;13.858;2022-07-23T02:37:46;97793.03;;;18.11;100.00
36190;BME280;22232;50.914;13.858;2022-07-23T02:40:18;97787.09;;;18.09;100.00
36190;BME280;22232;50.914;13.858;2022-07-23T02:42:45;97783.84;;;18.12;100.00
36190;BME280;22232;50.914;13.858;2022-07-23T02:45:13;97776.53;;;18.13;100.00
36190;BME280;22232;50.914;13.858;2022-07-23T02:47:41;97780.59;;;18.15;100.00
36190;BME280;22232;50.914;13.858;2022-07-23T02:50:09;97770.31;;;18.17;100.00
36190;BME280;22232;50.914;13.858;2022-07-23T02:52:38;97762.47;;;18.21;100.00
36190;BME280;22232;50.914;13.858;2022-07-23T02:55:07;97777.81;;;18.25;100.00
36190;BME280;22232;50.914;13.858;2022-07-23T02:57:35;97784.00;;;18.26;100.00
36190;BME280;22232;50.914;13.858;2022-07-23T03:00:04;97777.00;;;18.25;100.00
36190;BME280;22232;50.914;13.858;2022-07-23T03:02:33;97770.50;;;18.26;100.00
36190;BME280;22232;50.914;13.858;2022-07-23T03:05:01;97770.50;;;18.26;100.00
36190;BME280;22232;50.914;13.858;2022-07-23T03:07:28;97762.13;;;18.27;100.00
36190;BME280;22232;50.914;13.858;2022-07-23T03:09:56;97762.69;;;18.24;100.00
36190;BME280;22232;50.914;13.858;2022-07-23T03:12:24;97769.44;;;18.27;100.00
36190;BME280;22232;50.914;13.858;2022-07-23T03:14:51;97762.38;;;18.31;100.00
36190;BME280;22232;50.914;13.858;2022-07-23T03:17:19;97759.91;;;18.34;100.00
36190;BME280;22232;50.914;13.858;2022-07-23T03:19:47;97765.59;;;18.33;100.00
36190;BME280;22232;50.914;13.858;2022-07-23T03:22:14;97765.88;;;18.31;100.00
36190;BME280;22232;50.914;13.858;2022-07-23T03:24:42;97765.59;;;18.33;100.00
36190;BME280;22232;50.914;13.858;2022-07-23T03:27:30;97760.22;;;18.33;100.00
36190;BME280;22232;50.914;13.858;2022-07-23T03:29:59;97749.38;;;18.38;100.00
36190;BME280;22232;50.914;13.858;2022-07-23T03:32:27;97750.41;;;18.42;100.00
36190;BME280;22232;50.914;13.858;2022-07-23T03:34:55;97745.00;;;18.42;100.00
36190;BME280;22232;50.914;13.858;2022-07-23T03:37:24;97742.78;;;18.49;100.00
36190;BME280;22232;50.914;13.858;2022-07-23T03:39:52;97738.34;;;18.64;100.00
36190;BME280;22232;50.914;13.858;2022-07-23T03:42:20;97750.41;;;18.71;100.00
36190;BME280;22232;50.914;13.858;2022-07-23T03:44:47;97747.69;;;18.76;100.00
36190;BME280;22232;50.914;13.858;2022-07-23T03:47:15;97747.69;;;18.76;100.00
36190;BME280;22232;50.914;13.858;2022-07-23T03:49:44;97745.00;;;18.71;100.00
36190;BME280;22232;50.914;13.858;2022-07-23T03:52:12;97745.56;;;18.68;100.00
36190;BME280;22232;50.914;13.858;2022-07-23T03:54:39;97732.84;;;18.74;100.00
36190;BME280;22232;50.914;13.858;2022-07-23T03:57:07;97729.09;;;18.75;100.00
36190;BME280;22232;50.914;13.858;2022-07-23T03:59:34;97729.91;;;18.70;100.00
36190;BME280;22232;50.914;13.858;2022-07-23T04:02:02;97718.09;;;18.61;100.00
36190;BME280;22232;50.914;13.858;2022-07-23T04:04:30;97704.50;;;18.42;100.00
36190;BME280;22232;50.914;13.858;2022-07-23T04:06:58;97702.91;;;18.41;100.00
36190;BME280;22232;50.914;13.858;2022-07-23T04:09:26;97709.94;;;18.37;100.00
36190;BME280;22232;50.914;13.858;2022-07-23T04:11:54;97718.94;;;18.27;100.00
36190;BME280;22232;50.914;13.858;2022-07-23T04:14:22;97720.31;;;18.25;100.00
36190;BME280;22232;50.914;13.858;2022-07-23T04:16:49;97719.44;;;17.95;100.00
36190;BME280;22232;50.914;13.858;2022-07-23T04:19:18;97713.63;;;17.73;100.00
36190;BME280;22232;50.914;13.858;2022-07-23T04:22:01;97715.84;;;17.60;100.00
36190;BME280;22232;50.914;13.858;2022-07-23T04:24:31;97713.69;;;17.62;100.00
36190;BME280;22232;50.914;13.858;2022-07-23T04:26:58;97702.59;;;17.69;100.00
36190;BME280;22232;50.914;13.858;2022-07-23T04:29:26;97708.47;;;17.86;100.00
36190;BME280;22232;50.914;13.858;2022-07-23T04:31:54;97713.38;;;18.14;100.00
36190;BME280;22232;50.914;13.858;2022-07-23T04:34:22;97720.66;;;18.47;100.00
36190;BME280;22232;50.914;13.858;2022-07-23T04:36:50;97712.41;;;18.92;100.00
36190;BME280;22232;50.914;13.858;2022-07-23T04:39:18;97711.44;;;19.49;100.00
36190;BME280;22232;50.914;13.858;2022-07-23T04:41:46;97713.75;;;20.18;100.00
36190;BME280;22232;50.914;13.858;2022-07-23T04:44:14;97707.19;;;20.84;100.00
36190;BME280;22232;50.914;13.858;2022-07-23T04:46:42;97711.22;;;21.28;100.00
36190;BME280;22232;50.914;13.858;2022-07-23T04:49:10;97701.59;;;21.50;100.00
36190;BME280;22232;50.914;13.858;2022-07-23T04:51:38;97713.25;;;21.09;100.00
36190;BME280;22232;50.914;13.858;2022-07-23T04:54:05;97717.50;;;20.69;100.00
36190;BME280;22232;50.914;13.858;2022-07-23T04:56:34;97728.09;;;20.19;100.00
36190;BME280;22232;50.914;13.858;2022-07-23T04:59:01;97736.81;;;19.97;100.00
36190;BME280;22232;50.914;13.858;2022-07-23T05:01:30;97743.78;;;19.60;100.00
36190;BME280;22232;50.914;13.858;2022-07-23T05:03:58;97743.31;;;19.53;100.00
36190;BME280;22232;50.914;13.858;2022-07-23T05:06:31;97748.97;;;19.32;100.00
36190;BME280;22232;50.914;13.858;2022-07-23T05:08:59;97739.91;;;19.23;100.00
36190;BME280;22232;50.914;13.858;2022-07-23T05:11:28;97736.97;;;19.19;100.00
36190;BME280;22232;50.914;13.858;2022-07-23T05:13:56;97753.41;;;19.23;100.00
36190;BME280;22232;50.914;13.858;2022-07-23T05:16:24;97741.44;;;19.29;100.00
36190;BME280;22232;50.914;13.858;2022-07-23T05:18:56;97742.03;;;19.26;100.00
36190;BME280;22232;50.914;13.858;2022-07-23T05:21:24;97746.44;;;19.41;100.00
36190;BME280;22232;50.914;13.858;2022-07-23T05:23:54;97738.94;;;19.57;100.00
36190;BME280;22232;50.914;13.858;2022-07-23T05:26:21;97733.06;;;19.74;100.00
36190;BME280;22232;50.914;13.858;2022-07-23T05:28:50;97739.81;;;19.95;100.00
36190;BME280;22232;50.914;13.858;2022-07-23T05:31:19;97747.34;;;19.98;100.00
36190;BME280;22232;50.914;13.858;2022-07-23T05:33:47;97743.66;;;20.08;100.00
36190;BME280;22232;50.914;13.858;2022-07-23T05:36:15;97743.09;;;19.92;100.00
36190;BME280;22232;50.914;13.858;2022-07-23T05:38:54;97757.44;;;19.92;100.00
36190;BME280;22232;50.914;13.858;2022-07-23T05:41:23;97766.88;;;19.95;100.00
36190;BME280;22232;50.914;13.858;2022-07-23T05:43:50;97780.84;;;19.83;100.00
36190;BME280;22232;50.914;13.858;2022-07-23T05:46:19;97778.81;;;19.75;100.00
36190;BME280;22232;50.914;13.858;2022-07-23T05:48:51;97793.41;;;19.74;100.00
36190;BME280;22232;50.914;13.858;2022-07-23T05:51:41;97810.44;;;19.75;100.00
36190;BME280;22232;50.914;13.858;2022-07-23T05:54:13;97809.16;;;19.72;100.00
36190;BME280;22232;50.914;13.858;2022-07-23T05:56:41;97829.28;;;19.85;100.00
36190;BME280;22232;50.914;13.858;2022-07-23T05:59:09;97850.06;;;19.89;100.00
36190;BME280;22232;50.914;13.858;2022-07-23T06:01:36;97847.44;;;19.84;100.00
36190;BME280;22232;50.914;13.858;2022-07-23T06:04:10;97841.75;;;19.81;100.00
36190;BME280;22232;50.914;13.858;2022-07-23T06:06:43;97865.16;;;19.71;100.00
36190;BME280;22232;50.914;13.858;2022-07-23T06:09:11;97859.50;;;19.68;100.00
36190;BME280;22232;50.914;13.858;2022-07-23T06:11:41;97860.91;;;19.36;100.00
36190;BME280;22232;50.914;13.858;2022-07-23T06:14:09;97871.78;;;19.31;100.00
36190;BME280;22232;50.914;13.858;2022-07-23T06:16:51;97873.28;;;19.42;100.00
36190;BME280;22232;50.914;13.858;2022-07-23T06:19:19;97877.03;;;19.46;100.00
36190;BME280;22232;50.914;13.858;2022-07-23T06:21:46;97880.72;;;19.56;100.00
36190;BME280;22232;50.914;13.858;2022-07-23T06:24:16;97885.28;;;19.60;100.00
36190;BME280;22232;50.914;13.858;2022-07-23T06:26:44;97877.94;;;19.66;100.00
36190;BME280;22232;50.914;13.858;2022-07-23T06:29:12;97865.44;;;19.70;100.00
36190;BME280;22232;50.914;13.858;2022-07-23T06:31:41;97869.00;;;19.65;100.00
36190;BME280;22232;50.914;13.858;2022-07-23T06:34:10;97874.00;;;19.77;100.00
36190;BME280;22232;50.914;13.858;2022-07-23T06:36:37;97872.47;;;19.71;100.00
36190;BME280;22232;50.914;13.858;2022-07-23T06:39:06;97872.59;;;19.56;100.00
36190;BME280;22232;50.914;13.858;2022-07-23T06:41:36;97884.69;;;19.39;100.00
36190;BME280;22232;50.914;13.858;2022-07-23T06:44:04;97871.56;;;19.28;100.00
36190;BME280;22232;50.914;13.858;2022-07-23T06:46:34;97866.38;;;19.31;100.00
36190;BME280;22232;50.914;13.858;2022-07-23T06:49:03;97869.06;;;19.31;100.00
36190;BME280;22232;50.914;13.858;2022-07-23T06:51:33;97861.75;;;19.32;100.00
36190;BME280;22232;50.914;13.858;2022-07-23T06:54:01;97861.13;;;19.16;100.00
36190;BME280;22232;50.914;13.858;2022-07-23T06:56:29;97873.81;;;19.15;100.00
36190;BME280;22232;50.914;13.858;2022-07-23T06:58:56;97877.38;;;19.11;100.00
36190;BME280;22232;50.914;13.858;2022-07-23T07:01:26;97885.06;;;18.98;100.00
36190;BME280;22232;50.914;13.858;2022-07-23T07:03:54;97871.84;;;18.97;100.00
36190;BME280;22232;50.914;13.858;2022-07-23T07:06:22;97874.81;;;18.95;100.00
36190;BME280;22232;50.914;13.858;2022-07-23T07:08:51;97878.03;;;18.97;100.00
36190;BME280;22232;50.914;13.858;2022-07-23T07:11:19;97871.97;;;19.11;100.00
36190;BME280;22232;50.914;13.858;2022-07-23T07:13:46;97860.88;;;19.89;100.00
36190;BME280;22232;50.914;13.858;2022-07-23T07:16:14;97855.56;;;21.12;100.00
36190;BME280;22232;50.914;13.858;2022-07-23T07:18:42;97855.44;;;21.36;100.00
36190;BME280;22232;50.914;13.858;2022-07-23T07:21:10;97864.81;;;21.11;100.00
36190;BME280;22232;50.914;13.858;2022-07-23T07:23:37;97870.53;;;21.09;100.00
36190;BME280;22232;50.914;13.858;2022-07-23T07:26:05;97874.44;;;21.36;100.00
36190;BME280;22232;50.914;13.858;2022-07-23T07:28:33;97878.78;;;21.78;100.00
36190;BME280;22232;50.914;13.858;2022-07-23T07:31:01;97870.53;;;21.97;100.00
36190;BME280;22232;50.914;13.858;2022-07-23T07:33:29;97869.25;;;21.94;100.00
36190;BME280;22232;50.914;13.858;2022-07-23T07:35:57;97868.03;;;21.87;100.00
36190;BME280;22232;50.914;13.858;2022-07-23T07:38:25;97869.75;;;21.69;100.00
36190;BME280;22232;50.914;13.858;2022-07-23T07:40:53;97870.34;;;21.66;100.00
36190;BME280;22232;50.914;13.858;2022-07-23T07:43:22;97860.25;;;22.08;100.00
36190;BME280;22232;50.914;13.858;2022-07-23T07:45:49;97872.97;;;23.07;100.00
36190;BME280;22232;50.914;13.858;2022-07-23T07:48:17;97861.50;;;23.81;97.56
36190;BME280;22232;50.914;13.858;2022-07-23T07:50:45;97870.13;;;24.49;84.70
36190;BME280;22232;50.914;13.858;2022-07-23T07:53:12;97866.38;;;24.19;83.20
36190;BME280;22232;50.914;13.858;2022-07-23T07:55:40;97858.69;;;24.13;83.30
36190;BME280;22232;50.914;13.858;2022-07-23T07:58:08;97860.84;;;24.59;83.27
36190;BME280;22232;50.914;13.858;2022-07-23T08:00:36;97865.78;;;24.92;79.76
36190;BME280;22232;50.914;13.858;2022-07-23T08:03:05;97875.41;;;25.24;74.34
36190;BME280;22232;50.914;13.858;2022-07-23T08:05:32;97873.72;;;25.49;nan
36190;BME280;22232;50.914;13.858;2022-07-23T08:08:00;97867.41;;;25.02;74.11
36190;BME280;22232;50.914;13.858;2022-07-23T08:10:28;97860.50;;;24.87;78.59
36190;BME280;22232;50.914;13.858;2022-07-23T08:12:58;97858.81;;;25.38;75.86
36190;BME280;22232;50.914;13.858;2022-07-23T08:15:28;97852.94;;;26.25;70.55
36190;BME280;22232;50.914;13.858;2022-07-23T08:17:56;97854.50;;;26.56;64.60
36190;BME280;22232;50.914;13.858;2022-07-23T08:20:25;97848.25;;;26.55;62.86
36190;BME280;22232;50.914;13.858;2022-07-23T08:22:57;97848.94;;;26.22;64.52
36190;BME280;22232;50.914;13.858;2022-07-23T08:25:36;97842.47;;;26.48;64.17
36190;BME280;22232;50.914;13.858;2022-07-23T08:28:06;97849.09;;;27.01;61.86
36190;BME280;22232;50.914;13.858;2022-07-23T08:30:36;97851.59;;;26.94;61.65
36190;BME280;22232;50.914;13.858;2022-07-23T08:33:05;97854.09;;;26.99;60.05
36190;BME280;22232;50.914;13.858;2022-07-23T08:35:58;97837.78;;;26.57;62.17
36190;BME280;22232;50.914;13.858;2022-07-23T08:38:26;97842.81;;;25.66;67.77
36190;BME280;22232;50.914;13.858;2022-07-23T08:40:55;97841.34;;;25.30;70.53
36190;BME280;22232;50.914;13.858;2022-07-23T08:43:27;97840.09;;;25.02;73.88
36190;BME280;22232;50.914;13.858;2022-07-23T08:45:56;97843.28;;;25.30;71.40
36190;BME280;22232;50.914;13.858;2022-07-23T08:48:34;97845.72;;;24.36;78.58
36190;BME280;22232;50.914;13.858;2022-07-23T08:51:06;97844.94;;;24.87;78.33
36190;BME280;22232;50.914;13.858;2022-07-23T08:53:34;97859.66;;;24.34;81.48
36190;BME280;22232;50.914;13.858;2022-07-23T08:56:06;97855.94;;;25.73;74.34
36190;BME280;22232;50.914;13.858;2022-07-23T08:58:36;97866.31;;;25.50;72.19
36190;BME280;22232;50.914;13.858;2022-07-23T09:01:04;97871.81;;;26.18;69.25
36190;BME280;22232;50.914;13.858;2022-07-23T09:03:35;97865.63;;;26.50;63.36
36190;BME280;22232;50.914;13.858;2022-07-23T09:06:03;97868.81;;;27.15;61.99
36190;BME280;22232;50.914;13.858;2022-07-23T09:11:09;97865.31;;;27.39;57.40
36190;BME280;22232;50.914;13.858;2022-07-23T09:13:42;97874.44;;;27.10;58.70
36190;BME280;22232;50.914;13.858;2022-07-23T09:16:15;97870.31;;;26.50;62.45
36190;BME280;22232;50.914;13.858;2022-07-23T09:18:46;97866.63;;;27.66;59.98
36190;BME280;22232;50.914;13.858;2022-07-23T09:24:00;97870.81;;;25.93;63.97
36190;BME280;22232;50.914;13.858;2022-07-23T09:26:40;97879.16;;;25.96;64.86
36190;BME280;22232;50.914;13.858;2022-07-23T09:29:16;97879.91;;;26.56;63.46
36190;BME280;22232;50.914;13.858;2022-07-23T09:31:54;97876.19;;;26.82;60.64
36190;BME280;22232;50.914;13.858;2022-07-23T09:34:24;97872.06;;;26.25;62.59
36190;BME280;22232;50.914;13.858;2022-07-23T09:36:54;97879.91;;;25.67;64.83
36190;BME280;22232;50.914;13.858;2022-07-23T09:41:54;97880.13;;;26.51;63.70
36190;BME280;22232;50.914;13.858;2022-07-23T09:44:22;97877.53;;;26.75;61.49
36190;BME280;22232;50.914;13.858;2022-07-23T09:46:59;97885.44;;;26.89;61.55
36190;BME280;22232;50.914;13.858;2022-07-23T09:49:27;97879.75;;;26.94;59.09
36190;BME280;22232;50.914;13.858;2022-07-23T09:51:58;97883.94;;;26.59;61.21
36190;BME280;22232;50.914;13.858;2022-07-23T09:57:12;97897.84;;;26.66;61.42
36190;BME280;22232;50.914;13.858;2022-07-23T09:59:44;97906.19;;;25.80;65.58
36190;BME280;22232;50.914;13.858;2022-07-23T10:02:15;97904.06;;;25.56;66.21
36190;BME280;22232;50.914;13.858;2022-07-23T10:05:16;97897.06;;;25.76;68.18
36190;BME280;22232;50.914;13.858;2022-07-23T10:08:09;97902.81;;;25.92;65.49
36190;BME280;22232;50.914;13.858;2022-07-23T10:10:57;97896.69;;;25.95;64.17
36190;BME280;22232;50.914;13.858;2022-07-23T10:13:44;97904.13;;;26.16;64.38
36190;BME280;22232;50.914;13.858;2022-07-23T10:16:29;97897.66;;;26.50;63.72
36190;BME280;22232;50.914;13.858;2022-07-23T10:18:57;97893.28;;;27.45;58.48
36190;BME280;22232;50.914;13.858;2022-07-23T10:21:38;97894.72;;;26.97;56.71
36190;BME280;22232;50.914;13.858;2022-07-23T10:38:37;97918.34;;;26.81;56.82
36190;BME280;22232;50.914;13.858;2022-07-23T10:41:10;97914.31;;;26.36;60.68
36190;BME280;22232;50.914;13.858;2022-07-23T10:43:40;97922.56;;;25.98;63.94
36190;BME280;22232;50.914;13.858;2022-07-23T10:46:23;97919.66;;;26.53;62.44
36190;BME280;22232;50.914;13.858;2022-07-23T10:54:44;97911.25;;;27.67;55.78
36190;BME280;22232;50.914;13.858;2022-07-23T10:57:13;97919.84;;;28.02;55.49
36190;BME280;22232;50.914;13.858;2022-07-23T11:02:30;97936.53;;;28.34;53.39
36190;BME280;22232;50.914;13.858;2022-07-23T11:05:07;97928.31;;;27.97;53.35
36190;BME280;22232;50.914;13.858;2022-07-23T11:08:09;97930.84;;;26.90;57.49
36190;BME280;22232;50.914;13.858;2022-07-23T11:18:58;97914.78;;;25.61;64.62
36190;BME280;22232;50.914;13.858;2022-07-23T11:32:06;97925.94;;;27.17;57.16
36190;BME280;22232;50.914;13.858;2022-07-23T11:34:45;97924.34;;;26.74;57.42
36190;BME280;22232;50.914;13.858;2022-07-23T11:40:10;97915.28;;;27.03;60.43
36190;BME280;22232;50.914;13.858;2022-07-23T11:42:40;97909.25;;;27.43;55.16
36190;BME280;22232;50.914;13.858;2022-07-23T11:45:18;97917.16;;;26.90;57.89
36190;BME280;22232;50.914;13.858;2022-07-23T11:47:45;97922.91;;;25.96;62.78
36190;BME280;22232;50.914;13.858;2022-07-23T11:50:13;97917.22;;;26.31;61.30
36190;BME280;22232;50.914;13.858;2022-07-23T11:52:41;97916.63;;;26.97;59.91
36190;BME280;22232;50.914;13.858;2022-07-23T11:55:10;97909.81;;;26.61;57.94
36190;BME280;22232;50.914;13.858;2022-07-23T11:57:39;97903.38;;;26.36;58.32
36190;BME280;22232;50.914;13.858;2022-07-23T12:00:19;97900.25;;;25.40;63.44
36190;BME280;22232;50.914;13.858;2022-07-23T12:02:49;97898.53;;;25.27;65.28
36190;BME280;22232;50.914;13.858;2022-07-23T12:05:20;97900.41;;;25.35;66.34
36190;BME280;22232;50.914;13.858;2022-07-23T12:07:53;97905.94;;;25.64;65.20
36190;BME280;22232;50.914;13.858;2022-07-23T12:12:56;97911.91;;;25.58;64.92
36190;BME280;22232;50.914;13.858;2022-07-23T12:15:32;97915.22;;;25.16;67.73
36190;BME280;22232;50.914;13.858;2022-07-23T12:18:01;97920.00;;;25.28;67.79
36190;BME280;22232;50.914;13.858;2022-07-23T12:20:41;97920.50;;;24.61;73.38
36190;BME280;22232;50.914;13.858;2022-07-23T12:23:14;97922.13;;;24.88;73.33
36190;BME280;22232;50.914;13.858;2022-07-23T12:25:49;97906.72;;;24.92;72.59
36190;BME280;22232;50.914;13.858;2022-07-23T12:28:28;97920.03;;;24.85;74.06
36190;BME280;22232;50.914;13.858;2022-07-23T12:30:58;97924.50;;;24.55;77.08
36190;BME280;22232;50.914;13.858;2022-07-23T12:33:34;97940.66;;;23.85;84.38
36190;BME280;22232;50.914;13.858;2022-07-23T12:36:07;97924.19;;;23.59;88.17
36190;BME280;22232;50.914;13.858;2022-07-23T12:38:54;97936.50;;;23.34;91.48
36190;BME280;22232;50.914;13.858;2022-07-23T12:41:21;97931.06;;;23.34;93.04
36190;BME280;22232;50.914;13.858;2022-07-23T12:43:49;97938.81;;;23.18;93.71
36190;BME280;22232;50.914;13.858;2022-07-23T12:46:19;97948.06;;;22.58;100.00
36190;BME280;22232;50.914;13.858;2022-07-23T12:51:27;97963.59;;;22.30;100.00
36190;BME280;22232;50.914;13.858;2022-07-23T12:53:59;97957.03;;;22.45;100.00
36190;BME280;22232;50.914;13.858;2022-07-23T12:56:33;97961.16;;;22.56;100.00
36190;BME280;22232;50.914;13.858;2022-07-23T12:59:09;97968.31;;;22.38;100.00
36190;BME280;22232;50.914;13.858;2022-07-23T13:01:39;97965.28;;;22.54;100.00
36190;BME280;22232;50.914;13.858;2022-07-23T13:04:13;97962.59;;;22.40;100.00
36190;BME280;22232;50.914;13.858;2022-07-23T13:06:46;97967.63;;;22.47;100.00
36190;BME280;22232;50.914;13.858;2022-07-23T13:09:26;97973.94;;;23.06;100.00
36190;BME280;22232;50.914;13.858;2022-07-23T13:11:59;97977.16;;;23.30;100.00
36190;BME280;22232;50.914;13.858;2022-07-23T13:14:27;97969.25;;;22.84;100.00
36190;BME280;22232;50.914;13.858;2022-07-23T13:16:56;97979.25;;;22.61;100.00
36190;BME280;22232;50.914;13.858;2022-07-23T13:19:25;97981.22;;;22.97;100.00
36190;BME280;22232;50.914;13.858;2022-07-23T13:21:54;97985.94;;;23.27;100.00
36190;BME280;22232;50.914;13.858;2022-07-23T13:24:22;97988.53;;;23.10;100.00
36190;BME280;22232;50.914;13.858;2022-07-23T13:26:50;97990.44;;;22.59;100.00
36190;BME280;22232;50.914;13.858;2022-07-23T13:29:19;97987.94;;;22.49;100.00
36190;BME280;22232;50.914;13.858;2022-07-23T13:31:46;97989.97;;;22.30;100.00
36190;BME280;22232;50.914;13.858;2022-07-23T13:34:17;97980.19;;;22.93;100.00
36190;BME280;22232;50.914;13.858;2022-07-23T13:36:46;97987.88;;;23.58;100.00
36190;BME280;22232;50.914;13.858;2022-07-23T13:39:14;97984.00;;;23.73;97.01
36190;BME280;22232;50.914;13.858;2022-07-23T13:41:41;97975.75;;;23.64;99.54
36190;BME280;22232;50.914;13.858;2022-07-23T13:44:17;97980.78;;;23.03;100.00
36190;BME280;22232;50.914;13.858;2022-07-23T13:46:49;97982.28;;;22.59;100.00
36190;BME280;22232;50.914;13.858;2022-07-23T13:49:17;97980.88;;;22.62;100.00
36190;BME280;22232;50.914;13.858;2022-07-23T13:51:46;97987.41;;;22.61;100.00
36190;BME280;22232;50.914;13.858;2022-07-23T13:54:13;97985.91;;;22.55;100.00
36190;BME280;22232;50.914;13.858;2022-07-23T13:56:41;97975.88;;;22.55;100.00
36190;BME280;22232;50.914;13.858;2022-07-23T13:59:09;97967.81;;;22.36;100.00